Station: Gove Airport  

  Atmospheric Gas Attenuation - ITU Rec 676-11   ----------------- dB/100km -----------------
Date Time Temp RH % AH g/m3 Dew Point Wind Direction Speed kph Gust kph Barometer mB Rainfall Since 9am 24GHz 47GHz 76GHz 122GHz 134GHz 241GHz
03/05 00:30 26.4 89 22.16 24.4 15 19 1010.9 0.8 47.5 45.4 90.9 240.6 269.9 937.9
03/05 00:20 26.4 88 21.91 24.2 15 17 1011.1 0.8 47.0 44.9 89.6 237.3 265.9 923.9
03/05 00:10 26.3 88 21.79 24.2 15 17 1011 0.8 46.8 44.7 89.2 236.0 264.3 918.3
03/05 00:00 26.4 88 21.91 24.2 17 22 1011.1 0.8 47.0 44.9 89.6 237.3 265.9 923.9
02/05 23:50 26.6 87 21.9 24.3 17 20 1011.1 0.8 47.0 44.8 89.3 236.6 265.0 920.8
02/05 23:40 26.6 87 21.9 24.3 17 19 1011.2 0.8 47.0 44.8 89.4 236.6 265.0 920.9
02/05 23:30 26.8 86 21.89 24.3 19 22 1011.2 0.8 46.9 44.6 89.1 235.8 264.2 917.9
02/05 23:20 26.9 86 22.01 24.4 20 22 1011.2 0.8 47.2 44.8 89.5 237.1 265.7 923.4
02/05 23:10 27.1 85 22 24.4 20 24 1011.1 0.8 47.1 44.7 89.2 236.3 264.8 920.3
02/05 23:00 27.2 84 21.86 24.3 19 24 1011.2 0.8 46.8 44.4 88.4 234.2 262.3 911.3
02/05 22:50 27.3 84 21.98 24.4 17 19 1011.3 0.8 47.0 44.6 88.9 235.4 263.8 916.8
02/05 22:40 27.2 84 21.86 24.3 17 19 1011.3 0.8 46.8 44.4 88.4 234.2 262.3 911.4
02/05 22:30 27.3 84 21.98 24.4 17 20 1011.2 0.8 47.0 44.6 88.9 235.4 263.8 916.8
02/05 22:20 27.3 84 21.98 24.4 17 20 1011.3 0.8 47.0 44.6 88.9 235.4 263.8 916.8
02/05 22:10 27.3 84 21.98 24.4 15 20 1011.4 0.8 47.0 44.6 88.9 235.4 263.9 916.9
02/05 22:00 27.3 84 21.98 24.4 19 20 1011.4 0.8 47.0 44.6 88.9 235.4 263.9 916.9
02/05 21:50 27.4 83 21.84 24.3 19 20 1011.5 0.8 46.7 44.2 88.1 233.3 261.3 908.0
02/05 21:40 27.4 83 21.84 24.3 15 17 1011.5 0.8 46.7 44.2 88.1 233.3 261.3 908.0
02/05 21:30 27.3 83 21.72 24.2 13 19 1011.5 0.8 46.5 44.1 87.7 232.1 259.7 902.5
02/05 21:20 27.2 83 21.6 24.1 15 17 1011.5 0.8 46.2 43.9 87.2 230.8 258.2 897.1
02/05 21:10 27.3 83 21.72 24.2 15 17 1011.5 0.8 46.5 44.1 87.7 232.1 259.7 902.5
02/05 21:00 27.4 82 21.58 24.1 17 20 1011.5 0.8 46.2 43.7 86.9 229.9 257.1 893.6
02/05 20:50 27.4 82 21.58 24 19 20 1011.5 0.8 46.2 43.7 86.9 229.9 257.1 893.6
02/05 20:40 27.4 82 21.58 24 15 17 1011.3 0.8 46.2 43.7 86.8 229.9 257.1 893.5
02/05 20:30 27.4 81 21.31 23.8 17 20 1011.2 0.8 45.6 43.2 85.5 226.4 252.8 878.5
02/05 20:20 27.3 81 21.2 23.7 15 17 1011.1 0.8 45.4 43.0 85.1 225.3 251.4 873.6
02/05 20:10 27.2 81 21.08 23.7 15 17 1011 0.8 45.1 42.8 84.6 224.0 249.8 868.2
02/05 20:00 27.2 81 21.08 23.7 13 19 1010.9 0.8 45.1 42.8 84.6 224.0 249.8 868.1
02/05 19:50 27.3 82 21.46 24 13 13 1010.8 0.8 45.9 43.5 86.3 228.6 255.5 887.7
02/05 19:40 27.2 81 21.08 23.7 15 17 1010.7 0.8 45.1 42.8 84.6 224.0 249.8 868.0
02/05 19:30 27 83 21.36 23.9 13 17 1010.5 0.8 45.8 43.5 86.2 228.2 254.9 885.6
02/05 19:20 26.9 82 20.99 23.6 13 17 1010.3 0.8 45.0 42.8 84.5 223.6 249.3 866.3
02/05 19:10 26.8 83 21.13 23.7 13 15 1010.1 0.8 45.3 43.1 85.3 225.7 251.8 875.0
02/05 19:00 26.9 81 20.73 23.4 13 17 1010.1 0.8 44.4 42.3 83.2 220.3 245.2 852.0
02/05 18:50 27 81 20.85 23.5 15 15 1010 0.8 44.7 42.5 83.7 221.5 246.7 857.3
02/05 18:40 27.1 82 21.22 23.8 13 15 1009.9 0.8 45.5 43.1 85.3 225.9 252.2 876.4
02/05 18:30 27.2 81 21.08 23.7 15 17 1009.8 0.8 45.2 42.8 84.5 223.8 249.6 867.5
02/05 18:20 27.4 81 21.31 23.8 17 19 1009.8 0.8 45.6 43.1 85.4 226.2 252.6 877.7
02/05 18:10 27.7 79 21.13 23.7 17 19 1009.8 0.8 45.2 42.6 84.2 223.0 248.7 864.4
02/05 18:00 27.9 78 21.1 23.7 19 24 1009.7 0.8 45.1 42.5 83.9 222.0 247.6 860.5
02/05 17:50 27.9 79 21.37 23.9 19 20 1009.6 0.8 45.7 43.0 85.1 225.4 251.8 875.1
02/05 17:40 28.3 76 21.01 23.7 22 24 1009.6 0.8 44.9 42.1 83.0 219.7 244.9 851.0
02/05 17:30 28.6 75 21.08 23.7 19 24 1009.6 0.8 45.0 42.1 83.0 219.7 245.0 851.4
02/05 17:20 28.7 74 20.91 23.6 19 20 1009.6 0.8 44.6 41.7 82.1 217.3 242.0 841.2
02/05 17:10 28.8 74 21.03 23.7 17 20 1009.6 0.8 44.9 41.9 82.5 218.5 243.5 846.5
02/05 17:00 29.3 72 21.02 23.7 17 26 1009.4 0.8 44.8 41.6 81.9 216.9 241.7 840.3
02/05 16:50 28.9 70 20 22.9 20 24 1009.3 0.8 42.7 39.9 77.6 205.4 227.6 791.0
02/05 16:40 29.5 71 20.96 23.7 17 20 1009.1 0.8 44.6 41.4 81.4 215.5 240.1 834.7
02/05 16:30 29.6 69 20.48 23.3 20 26 1009.1 0.8 43.6 40.4 79.1 209.4 232.6 808.5
02/05 16:20 29.5 69 20.37 23.2 19 22 1009 0.8 43.4 40.3 78.7 208.3 231.2 803.8
02/05 16:10 29.6 67 19.89 22.8 17 20 1009 0.8 42.4 39.3 76.4 202.2 223.8 778.0
02/05 16:00 29.1 70 20.22 23.1 24 33 1009 0.8 43.1 40.2 78.4 207.5 230.2 800.2
02/05 15:50 30.1 69 21.04 23.8 22 26 1009 0.8 44.7 41.2 81.1 214.8 239.4 832.3
02/05 15:40 30.1 69 21.04 23.8 19 24 1009.1 0.8 44.7 41.2 81.1 214.8 239.4 832.3
02/05 15:30 29.9 66 19.91 22.9 20 32 1009.1 0.8 42.4 39.2 76.2 201.7 223.2 776.0
02/05 15:20 30.4 68 21.08 23.8 20 24 1009.2 0.8 44.8 41.1 81.0 214.5 239.1 831.2
02/05 15:10 30.2 69 21.16 23.9 19 24 1009.2 0.8 45.0 41.4 81.6 216.0 240.9 837.6
02/05 15:00 30.2 67 20.54 23.6 20 30 1009.1 0.8 43.7 40.2 78.7 208.4 231.6 805.3
02/05 14:50 30 67 20.32 23.2 19 24 1009.2 0.8 43.2 39.9 77.9 206.3 229.0 796.1
02/05 14:40 30.1 67 20.43 23.5 24 26 1009.2 0.8 43.5 40.1 78.3 207.4 230.3 800.7
02/05 14:30 30.1 67 20.43 23.5 20 32 1009.4 0.8 43.5 40.1 78.4 207.4 230.3 800.8
02/05 14:20 30.1 65 19.82 23 26 33 1009.4 0.8 42.2 39.0 75.6 200.1 221.4 769.6
02/05 14:10 30 67 20.32 23.4 24 28 1009.6 0.8 43.2 40.0 78.0 206.4 229.0 796.3
02/05 14:00 30 69 20.93 23.7 20 30 1009.8 0.8 44.5 41.1 80.8 213.9 238.2 828.1
02/05 13:50 30.4 70 21.7 24.3 20 24 1009.9 0.8 46.1 42.3 83.9 222.2 248.6 864.2
02/05 13:40 29.9 67 20.21 23.3 24 32 1010.1 0.8 43.0 39.8 77.6 205.4 227.8 791.9
02/05 13:30 29.8 68 20.4 23.3 24 35 1010.1 0.8 43.4 40.2 78.6 208.0 230.9 802.8
02/05 13:20 29.9 69 20.82 23.6 28 32 1010.2 0.8 44.3 41.0 80.4 212.9 236.9 823.6
02/05 13:10 30.2 69 21.16 23.9 20 28 1010.4 0.8 45.0 41.4 81.7 216.2 241.1 838.3
02/05 13:00 29.5 69 20.37 23.4 22 33 1010.5 0.8 43.4 40.3 78.8 208.5 231.5 804.6
02/05 12:50 29.3 72 21.02 23.7 15 20 1010.7 0.8 44.8 41.6 82.0 217.1 241.9 841.0
02/05 12:40 29.8 68 20.4 23.3 24 28 1010.8 0.8 43.4 40.3 78.6 208.1 231.0 803.2
02/05 12:30 29.1 72 20.8 23.5 22 28 1011 0.8 44.3 41.3 81.2 215.0 239.3 831.7
02/05 12:20 29.7 71 21.19 23.9 22 24 1011.2 0.8 45.1 41.8 82.4 218.1 243.3 845.8
02/05 12:10 29.6 71 21.07 23.8 22 26 1011.3 0.8 44.8 41.6 81.9 217.0 241.8 840.7
02/05 12:00 29.8 70 21 23.7 26 33 1011.2 0.8 44.7 41.4 81.4 215.5 240.1 834.7
02/05 11:50 29.5 72 21.25 24.1 26 32 1011.3 0.6 45.2 42.0 82.9 219.5 244.9 851.3
02/05 11:40 29.1 74 21.37 24 24 28 1011.5 0.6 45.5 42.4 83.9 222.2 248.1 862.3
02/05 11:30 29 75 21.55 24.1 20 30 1011.5 0.6 45.9 42.8 84.9 224.7 251.2 873.2
02/05 11:20 28.9 76 21.71 24.2 19 22 1011.6 0.6 46.3 43.2 85.8 227.1 254.0 883.0
02/05 11:10 28.4 78 21.68 24.2 22 24 1011.7 0.6 46.3 43.4 86.2 228.2 255.3 887.3
02/05 11:00 27.9 79 21.37 23.9 17 26 1011.9 0.6 45.7 43.1 85.3 225.8 252.2 876.4
02/05 10:50 28 85 23.12 25.2 19 20 1012 0.6 49.4 46.5 93.8 248.3 279.8 972.5
02/05 10:40 27.3 90 23.55 25.5 19 20 1012.1 0.6 50.4 47.8 96.9 256.5 289.7 1006.5
02/05 10:30 28.4 77 21.41 24 19 24 1012.2 0 45.7 42.9 84.9 224.9 251.2 872.9
02/05 10:20 28.9 76 21.71 24.2 20 24 1012.1 0 46.3 43.2 85.8 227.2 254.1 883.3
02/05 10:10 29.7 71 21.19 23.9 26 33 1012 0 45.1 41.8 82.4 218.3 243.4 846.3
02/05 10:00 28.8 74 21.03 23.7 20 30 1012.1 0 44.8 42.0 82.7 218.9 243.9 847.9
02/05 09:50 29 74 21.26 23.9 22 28 1012 0 45.3 42.3 83.5 221.2 246.8 857.9
02/05 09:40 28.8 74 21.03 23.7 20 24 1012 0 44.8 42.0 82.7 218.9 243.9 847.8
02/05 09:30 28.8 74 21.03 23.7 20 26 1012 0 44.8 42.0 82.7 218.9 243.9 847.8
02/05 09:20 29.3 73 21.32 24 20 22 1011.9 0 45.4 42.3 83.5 221.0 246.7 857.6
02/05 09:10 29 74 21.26 23.9 20 26 1011.9 0 45.3 42.3 83.5 221.2 246.8 857.8
02/05 09:00 28.8 76 21.6 24.1 20 26 1011.8 0 46.0 43.0 85.4 226.0 252.7 878.4
02/05 08:50 28.7 80 22.61 24.9 19 20 1011.8 0.6 48.2 45.1 90.4 239.3 269.0 934.9
02/05 08:40 28.1 80 21.88 24.3 22 24 1011.9 0.6 46.7 44.0 87.5 231.7 259.5 902.0
02/05 08:30 27.8 82 22.06 24.4 19 24 1011.8 0.6 47.1 44.5 88.8 235.0 263.4 915.5
02/05 08:20 27.6 83 22.08 24.4 15 17 1011.7 0.6 47.2 44.6 89.1 235.9 264.4 919.0
02/05 08:10 27.6 84 22.35 24.6 15 17 1011.7 0.6 47.8 45.1 90.4 239.4 268.8 934.0
02/05 08:00 27.1 86 22.26 24.6 13 17 1011.7 0.6 47.7 45.2 90.6 239.8 269.2 935.2

Last Refresh: 03-May-2026 00:35:50

Bureau of Meteorology